Data for 09/07/2010

Time Sea-Level Adjusted Pressure Absolute Pressure Temperature Relative Humidity Dew Point   
(mb) (inHg) (mb) (inHg) (C) (F) (%) (C) (F)
00:05 1019 30.09 848 25.04 6.5 43.8 60 -0.7 30.7
00:10 1019 30.09 848 25.04 6.7 44.1 59 -0.6 30.8
00:15 1019 30.09 848 25.04 6.7 44 59 -0.7 30.7
00:20 1019 30.09 848 25.04 6.6 44 60 -0.6 30.9
00:25 1019 30.09 848 25.04 6.5 43.7 60 -0.7 30.7
00:30 1019 30.09 848 25.04 6.6 43.9 59 -0.9 30.4
00:35 1019 30.09 848 25.04 6.6 43.9 59 -0.8 30.6
00:40 1019 30.09 848 25.04 6.7 44 58 -1.1 30
00:45 1019 30.09 848 25.04 6.8 44.3 57 -1 30.1
00:50 1019 30.09 848 25.04 6.8 44.2 57 -1.2 29.9
00:55 1019 30.09 848 25.04 6.6 43.9 57 -1.3 29.6
01:00 1019 30.09 848 25.04 6.6 44 57 -1.3 29.6
01:05 1018 30.06 848 25.04 6.7 44.1 55 -1.6 29.1
01:10 1018 30.06 848 25.04 6.7 44.1 55 -1.6 29.1
01:15 1018 30.06 848 25.04 6.7 44 56 -1.5 29.4
01:20 1018 30.06 848 25.04 6.6 43.9 56 -1.6 29.1
01:25 1018 30.06 848 25.04 6.7 44 55 -1.7 28.9
01:30 1018 30.06 848 25.04 6.6 44 53 -2.1 28.2
01:35 1018 30.06 848 25.04 6.7 44.1 54 -1.8 28.7
01:40 1018 30.06 848 25.04 6.4 43.6 56 -1.7 28.9
01:45 1018 30.06 848 25.04 6.4 43.5 55 -2 28.4
01:50 1018 30.06 848 25.04 6.4 43.5 55 -2 28.4
01:55 1018 30.06 848 25.04 6.3 43.3 56 -1.9 28.6
02:00 1018 30.06 848 25.04 6.3 43.4 54 -2.2 28
02:05 1018 30.06 848 25.04 6.4 43.5 54 -2.2 28
02:10 1018 30.06 848 25.04 6.3 43.4 54 -2.4 27.7
02:15 1018 30.06 848 25.04 6.4 43.5 53 -2.5 27.5
02:20 1018 30.06 848 25.04 6.4 43.5 54 -2.2 28
02:25 1018 30.06 848 25.04 6.2 43.1 55 -2.2 28
02:30 1018 30.06 848 25.04 6.1 43 55 -2.3 27.8
02:35 1018 30.06 848 25.04 5.9 42.7 56 -2.3 27.9
02:40 1018 30.06 848 25.04 5.9 42.7 56 -2.2 28
02:45 1018 30.06 848 25.04 5.9 42.6 56 -2.2 28
02:50 1018 30.06 848 25.04 5.8 42.4 56 -2.4 27.7
02:55 1018 30.06 848 25.04 5.7 42.3 57 -2.2 28
03:00 1018 30.06 848 25.04 5.6 42.2 56 -2.5 27.4
03:05 1018 30.06 848 25.04 5.7 42.3 57 -2.2 28
03:10 1018 30.06 848 25.04 5.6 42.1 57 -2.3 27.8
03:15 1018 30.06 848 25.04 5.5 42 56 -2.6 27.3
03:20 1018 30.06 848 25.04 5.7 42.2 56 -2.5 27.6
03:25 1018 30.06 848 25.04 5.5 41.9 57 -2.3 27.8
03:30 1018 30.06 848 25.04 5.3 41.5 58 -2.3 27.9
03:35 1018 30.06 848 25.04 5 41.1 59 -2.3 27.9
03:40 1018 30.06 848 25.04 4.9 40.7 61 -2 28.3
03:45 1018 30.06 848 25.04 4.8 40.7 58 -2.8 27
03:50 1018 30.06 847 25.01 5.1 41.3 56 -2.9 26.8
03:55 1018 30.06 847 25.01 5.4 41.7 55 -2.9 26.7
04:00 1018 30.06 847 25.01 5.6 42.1 55 -2.8 27
04:05 1018 30.06 847 25.01 5.5 42 55 -2.7 27.1
04:10 1018 30.06 847 25.01 5.4 41.7 55 -2.9 26.7
04:15 1018 30.06 847 25.01 5.6 42.1 55 -2.8 27
04:20 1018 30.06 847 25.01 5.4 41.8 56 -2.6 27.3
04:25 1018 30.06 847 25.01 5 41.1 58 -2.6 27.4
04:30 1018 30.06 847 25.01 4.8 40.7 58 -2.8 27
04:35 1018 30.06 847 25.01 4.9 40.9 57 -3 26.7
04:40 1018 30.06 847 25.01 5.2 41.3 54 -3.4 25.8
04:45 1018 30.06 847 25.01 5.4 41.7 57 -2.5 27.5
04:50 1018 30.06 847 25.01 5 41 56 -3 26.7
04:55 1018 30.06 847 25.01 4.9 40.8 57 -2.8 26.9
05:00 1018 30.06 847 25.01 4.8 40.7 57 -2.9 26.8
05:05 1018 30.06 847 25.01 4.8 40.7 57 -3 26.7
05:10 1018 30.06 847 25.01 4.8 40.6 57 -2.9 26.8
05:15 1018 30.06 847 25.01 4.8 40.7 57 -3 26.5
05:20 1018 30.06 847 25.01 4.9 40.8 55 -3.4 25.9
05:25 1018 30.06 847 25.01 5.2 41.4 52 -3.8 25.2
05:30 1018 30.06 847 25.01 5.6 42.2 51 -3.6 25.5
05:35 1018 30.06 847 25.01 5.8 42.4 51 -3.5 25.8
05:40 1018 30.06 847 25.01 5.3 41.5 55 -2.9 26.7
05:45 1018 30.06 847 25.01 4.8 40.7 55 -3.3 26
05:50 1018 30.06 847 25.01 4.9 40.8 57 -3 26.6
05:55 1018 30.06 847 25.01 4.8 40.6 57 -3.1 26.5
06:00 1018 30.06 847 25.01 5 41 54 -3.4 25.8
06:05 1018 30.06 847 25.01 5.3 41.6 52 -3.8 25.1
06:10 1018 30.06 847 25.01 5.9 42.7 49 -3.8 25.1
06:15 1018 30.06 847 25.01 5.9 42.7 52 -3.2 26.2
06:20 1018 30.06 847 25.01 5.6 42.2 52 -3.3 26
06:25 1018 30.06 847 25.01 5.4 41.7 54 -3.2 26.2
06:30 1018 30.06 847 25.01 5.5 41.9 52 -3.7 25.3
06:35 1018 30.06 847 25.01 5.7 42.2 53 -3.3 26.1
06:40 1018 30.06 847 25.01 5.5 41.9 57 -2.4 27.7
06:45 1018 30.06 847 25.01 4.4 39.8 68 -1.1 30
06:50 1018 30.06 847 25.01 3.8 38.8 65 -2.2 28.1
06:55 1018 30.06 847 25.01 4.2 39.5 61 -2.7 27.1
07:00 1018 30.06 847 25.01 4.5 40.2 61 -2.4 27.7
07:05 1018 30.06 848 25.04 4.7 40.5 60 -2.5 27.6
07:10 1018 30.06 847 25.01 4.8 40.6 60 -2.4 27.7
07:15 1018 30.06 847 25.01 4.9 40.8 57 -2.9 26.8
07:20 1018 30.06 848 25.04 5.2 41.3 55 -3.1 26.5
07:25 1018 30.06 848 25.04 5.4 41.7 55 -3 26.6
07:30 1018 30.06 848 25.04 5.6 42 53 -3.3 26
07:35 1018 30.06 847 25.01 5.8 42.5 50 -3.7 25.3
07:40 1018 30.06 848 25.04 6.4 43.5 52 -2.7 27.2
07:45 1018 30.06 848 25.04 6.4 43.4 54 -2.4 27.7
07:50 1018 30.06 848 25.04 6.3 43.3 52 -3 26.7
07:55 1018 30.06 847 25.01 6.6 43.9 50 -3 26.6
08:00 1018 30.06 847 25.01 6.7 44.1 53 -2.3 27.9
08:05 1018 30.06 848 25.04 7 44.6 51 -2.5 27.5
08:10 1018 30.06 847 25.01 7.2 45 52 -2 28.3
08:15 1018 30.06 847 25.01 7.5 45.5 51 -2 28.4
08:20 1018 30.06 847 25.01 7.7 45.9 51 -1.8 28.7
08:25 1018 30.06 847 25.01 8.1 46.5 48 -2.3 27.8
08:30 1018 30.06 847 25.01 8.6 47.4 47 -2.1 28.2
08:35 1018 30.06 847 25.01 8.9 48.1 46 -1.9 28.5
08:40 1018 30.06 847 25.01 9 48.2 43 -3 26.6
08:45 1018 30.06 847 25.01 9.2 48.6 44 -2.3 27.9
08:50 1018 30.06 848 25.04 9.7 49.4 43 -2.3 27.8
08:55 1018 30.06 847 25.01 10.3 50.5 42 -2.1 28.2
09:00 1018 30.06 847 25.01 10.3 50.5 42 -2.1 28.2
09:05 1018 30.06 847 25.01 10.6 51.1 43 -1.5 29.4
09:10 1018 30.06 847 25.01 11.2 52.1 37 -2.9 26.8
09:15 1018 30.06 847 25.01 12 53.5 38 -1.8 28.8
09:20 1018 30.06 847 25.01 12.1 53.8 37 -1.9 28.5
09:25 1018 30.06 847 25.01 12.5 54.5 34 -3 26.6
09:30 1018 30.06 847 25.01 12.6 54.7 35 -2.4 27.6
09:35 1018 30.06 847 25.01 12.6 54.8 34 -2.8 27
09:40 1018 30.06 847 25.01 12.9 55.2 33 -2.9 26.9
09:45 1018 30.06 847 25.01 13.5 56.2 32 -2.9 26.7
09:50 1018 30.06 847 25.01 13.5 56.3 38 -0.6 31
09:55 1018 30.06 847 25.01 12.2 54 41 -0.5 31
10:00 1018 30.06 847 25.01 12.3 54.2 41 -0.6 30.9
10:05 1018 30.06 847 25.01 12.1 53.8 43 0.1 32.1
10:10 1018 30.06 847 25.01 12.4 54.4 43 0.2 32.3
10:15 1018 30.06 847 25.01 12.7 54.9 42 0.3 32.5
10:20 1018 30.06 847 25.01 13.1 55.5 40 -0.3 31.5
10:25 1018 30.06 847 25.01 13.8 56.8 42 1.2 34.1
10:30 1018 30.06 847 25.01 13.8 56.8 40 0.6 33.1
10:35 1018 30.06 847 25.01 14.2 57.5 36 -0.5 31
10:40 1018 30.06 847 25.01 14.5 58.1 38 0.3 32.6
10:45 1018 30.06 847 25.01 14.5 58 38 0.3 32.6
10:50 1018 30.06 847 25.01 14.7 58.5 37 0.4 32.6
10:55 1018 30.06 847 25.01 14.7 58.4 37 0.2 32.4
11:00 1018 30.06 847 25.01 14.9 58.7 36 -0.1 31.8
11:05 1017 30.03 847 25.01 15.3 59.5 36 0.5 32.8
11:10 1017 30.03 847 25.01 15.5 60 32 -0.8 30.5
11:15 1017 30.03 846 24.98 15.6 60 33 -0.5 31.1
11:20 1017 30.03 846 24.98 15.8 60.5 33 -0.4 31.2
11:25 1017 30.03 846 24.98 16.5 61.7 31 -0.5 31.1
11:30 1017 30.03 846 24.98 17.2 63 31 0.2 32.3
11:35 1017 30.03 846 24.98 16.8 62.2 33 0.4 32.7
11:40 1017 30.03 846 24.98 16.9 62.4 30 -0.5 31.1
11:45 1017 30.03 846 24.98 16.9 62.5 32 0.2 32.3
11:50 1017 30.03 846 24.98 16.8 62.3 31 -0.4 31.2
11:55 1017 30.03 846 24.98 17.3 63.2 27 -2 28.4
12:00 1017 30.03 846 24.98 17.7 63.8 24 -3.1 26.4
12:05 1016 30 846 24.98 17.4 63.3 26 -2.3 27.8
12:10 1016 30 846 24.98 17.6 63.6 26 -2.2 28.1
12:15 1016 30 846 24.98 18.1 64.5 25 -2.2 28
12:20 1016 30 846 24.98 17.7 63.8 26 -2.1 28.2
12:25 1016 30 845 24.95 17.5 63.5 27 -1.6 29.1
12:30 1016 30 845 24.95 17.6 63.6 27 -1.7 28.9
12:35 1016 30 845 24.95 17.5 63.5 27 -1.7 29
12:40 1016 30 845 24.95 17.8 64.1 27 -1.2 29.8
12:45 1016 30 845 24.95 18.6 65.5 25 -1.6 29.1
12:50 1016 30 845 24.95 18.6 65.5 25 -1.7 28.9
12:55 1016 30 845 24.95 18.8 65.8 24 -2 28.4
13:00 1016 30 845 24.95 18.9 66 24 -2.1 28.3
13:05 1016 30 845 24.95 18.7 65.7 24 -2 28.3
13:10 1016 30 845 24.95 18.5 65.4 24 -2.2 28.1
13:15 1016 30 845 24.95 18.7 65.6 24 -2 28.4
13:20 1016 30 845 24.95 19.1 66.3 24 -2 28.4
13:25 1015 29.97 845 24.95 19.4 66.9 24 -1.5 29.2
13:30 1015 29.97 845 24.95 19.3 66.7 23 -2.2 28.1
13:35 1015 29.97 844 24.92 19.3 66.7 23 -2.2 28
13:40 1015 29.97 844 24.92 19.6 67.2 23 -1.7 28.9
13:45 1015 29.97 844 24.92 19.5 67.1 24 -1.5 29.3
13:50 1015 29.97 844 24.92 19.7 67.5 21 -2.8 27
13:55 1015 29.97 844 24.92 19.9 67.8 22 -2.1 28.2
14:00 1015 29.97 844 24.92 20.3 68.6 22 -2 28.5
14:05 1015 29.97 844 24.92 20.5 68.8 23 -1.4 29.5
14:10 1015 29.97 844 24.92 20.8 69.4 22 -1.4 29.5
14:15 1015 29.97 844 24.92 20.4 68.7 22 -2.1 28.3
14:20 1015 29.97 844 24.92 20.1 68.1 24 -0.9 30.4
14:25 1015 29.97 844 24.92 20.5 68.9 23 -1.3 29.6
14:30 1014 29.94 844 24.92 20.3 68.6 24 -0.8 30.5
14:35 1014 29.94 844 24.92 20.2 68.4 24 -0.8 30.6
14:40 1014 29.94 844 24.92 20.4 68.8 21 -2.2 28.1
14:45 1014 29.94 843 24.89 20.5 68.9 21 -2.1 28.2
14:50 1014 29.94 843 24.89 20.6 69 22 -1.6 29.2
14:55 1014 29.94 843 24.89 20.2 68.4 24 -0.9 30.3
15:00 1014 29.94 843 24.89 20.1 68.2 23 -1.5 29.3
15:05 1014 29.94 843 24.89 20.1 68.2 24 -0.7 30.8
15:10 1014 29.94 843 24.89 20.2 68.3 24 -0.9 30.4
15:15 1014 29.94 843 24.89 19.9 67.9 25 -0.6 31
15:20 1014 29.94 843 24.89 19.8 67.7 25 -0.4 31.4
15:25 1014 29.94 843 24.89 19.8 67.6 27 0.2 32.4
15:30 1014 29.94 843 24.89 19.9 67.8 27 0.4 32.7
15:35 1014 29.94 843 24.89 20.2 68.3 25 -0.4 31.2
15:40 1014 29.94 843 24.89 19.8 67.6 25 -0.8 30.6
15:45 1014 29.94 843 24.89 19.6 67.3 25 -0.7 30.8
15:50 1014 29.94 843 24.89 19.7 67.4 26 -0.3 31.5
15:55 1013 29.91 843 24.89 19.7 67.4 26 -0.4 31.2
16:00 1013 29.91 843 24.89 19.5 67.1 26 -0.4 31.2
16:05 1013 29.91 843 24.89 19.2 66.5 25 -1.1 30
16:10 1013 29.91 843 24.89 19.4 66.9 25 -0.8 30.5
16:15 1013 29.91 843 24.89 19.7 67.5 25 -0.7 30.7
16:20 1013 29.91 843 24.89 19.9 67.7 25 -0.5 31
16:25 1013 29.91 843 24.89 19.7 67.5 25 -0.6 30.8
16:30 1013 29.91 843 24.89 19.8 67.6 25 -0.6 30.8
16:35 1013 29.91 842 24.86 19.6 67.3 26 -0.4 31.3
16:40 1013 29.91 842 24.86 19.7 67.5 25 -0.8 30.6
16:45 1013 29.91 842 24.86 19.6 67.3 24 -1.2 29.8
16:50 1013 29.91 842 24.86 19.5 67.1 25 -1 30.3
16:55 1013 29.91 842 24.86 19.6 67.3 26 -0.3 31.4
17:00 1013 29.91 842 24.86 19.6 67.3 25 -0.7 30.7
17:05 1013 29.91 842 24.86 19.6 67.2 25 -0.9 30.4
17:10 1013 29.91 842 24.86 19.6 67.2 25 -0.6 30.9
17:15 1013 29.91 842 24.86 19.5 67.1 25 -0.9 30.4
17:20 1013 29.91 842 24.86 19.5 67.2 25 -0.9 30.4
17:25 1013 29.91 842 24.86 19.5 67.1 26 -0.3 31.5
17:30 1013 29.91 842 24.86 19.6 67.3 26 -0.2 31.6
17:35 1013 29.91 842 24.86 19.5 67.1 26 -0.4 31.4
17:40 1013 29.91 842 24.86 19.4 67 27 0.2 32.3
17:45 1013 29.91 842 24.86 19.6 67.2 28 0.6 33
17:50 1013 29.91 842 24.86 19.7 67.5 27 0.4 32.8
17:55 1013 29.91 842 24.86 19.5 67.1 28 0.8 33.4
18:00 1013 29.91 842 24.86 19.5 67 27 0.4 32.7
18:05 1013 29.91 842 24.86 19.5 67.2 28 0.6 33
18:10 1012 29.88 842 24.86 19.4 66.8 27 0.1 32.2
18:15 1012 29.88 842 24.86 19.2 66.6 26 -0.5 31.1
18:20 1012 29.88 841 24.83 19.1 66.4 25 -1 30.2
18:25 1012 29.88 841 24.83 19 66.2 25 -1.5 29.3
18:30 1012 29.88 842 24.86 18.9 66.1 25 -1.5 29.3
18:35 1012 29.88 842 24.86 18.9 65.9 24 -1.9 28.6
18:40 1012 29.88 842 24.86 18.8 65.8 25 -1.4 29.4
18:45 1012 29.88 842 24.86 18.7 65.7 24 -2.3 27.9
18:50 1013 29.91 842 24.86 18.7 65.6 25 -1.8 28.7
18:55 1012 29.88 842 24.86 18.6 65.4 23 -2.8 27
19:00 1013 29.91 842 24.86 18.5 65.2 24 -2.6 27.3
19:05 1013 29.91 842 24.86 18.3 65 23 -2.9 26.8
19:10 1013 29.91 842 24.86 18.3 64.9 24 -2.7 27.1
19:15 1013 29.91 842 24.86 18.1 64.6 23 -3 26.6
19:20 1012 29.88 842 24.86 18 64.4 24 -2.9 26.8
19:25 1012 29.88 842 24.86 17.9 64.3 24 -3 26.6
19:30 1013 29.91 842 24.86 17.8 64.1 24 -3.1 26.4
19:35 1013 29.91 842 24.86 17.8 64 24 -3.1 26.3
19:40 1013 29.91 842 24.86 17.7 63.8 25 -2.7 27.2
19:45 1013 29.91 842 24.86 17.5 63.5 25 -2.8 27
19:50 1013 29.91 842 24.86 17.3 63.1 25 -2.7 27.1
19:55 1013 29.91 842 24.86 17.1 62.8 25 -2.8 27
20:00 1013 29.91 842 24.86 17.1 62.8 25 -2.7 27.1
20:05 1013 29.91 842 24.86 17.1 62.7 25 -3.1 26.5
20:10 1013 29.91 842 24.86 17 62.6 25 -2.9 26.8
20:15 1013 29.91 842 24.86 17 62.5 26 -2.8 27
20:20 1013 29.91 842 24.86 16.9 62.5 26 -2.7 27.1
20:25 1013 29.91 842 24.86 16.9 62.5 25 -3 26.5
20:30 1013 29.91 842 24.86 17.1 62.8 26 -2.6 27.4
20:35 1013 29.91 842 24.86 16.9 62.5 26 -2.7 27.2
20:40 1013 29.91 842 24.86 17 62.6 26 -2.7 27.1
20:45 1013 29.91 842 24.86 17 62.5 26 -2.7 27.2
20:50 1013 29.91 842 24.86 16.9 62.4 27 -2.3 27.8
20:55 1013 29.91 842 24.86 16.7 62.1 27 -2.2 28
21:00 1013 29.91 842 24.86 16.7 62 27 -2.1 28.2
21:05 1013 29.91 842 24.86 16.5 61.8 28 -2.2 28.1
21:10 1013 29.91 842 24.86 16.5 61.8 28 -1.9 28.7
21:15 1013 29.91 842 24.86 16.4 61.6 29 -1.8 28.8
21:20 1013 29.91 842 24.86 16.3 61.4 29 -1.7 28.9
21:25 1013 29.91 842 24.86 16.3 61.4 29 -1.7 29
21:30 1013 29.91 842 24.86 16.2 61.2 29 -1.6 29.2
21:35 1013 29.91 842 24.86 16.2 61.1 29 -1.7 28.9
21:40 1013 29.91 842 24.86 16.2 61.1 29 -1.7 29
21:45 1013 29.91 842 24.86 16.1 61 29 -1.8 28.8
21:50 1013 29.91 842 24.86 16 60.8 29 -1.7 28.9
21:55 1013 29.91 842 24.86 16 60.9 29 -1.8 28.7
22:00 1013 29.91 842 24.86 15.9 60.6 30 -1.7 29
22:05 1013 29.91 842 24.86 15.8 60.4 30 -1.5 29.2
22:10 1012 29.88 842 24.86 15.7 60.3 31 -1.3 29.7
22:15 1013 29.91 842 24.86 15.5 60 31 -1.3 29.7
22:20 1012 29.88 842 24.86 15.4 59.8 31 -1.3 29.6
22:25 1012 29.88 842 24.86 15.4 59.7 32 -1 30.2
22:30 1012 29.88 842 24.86 15.2 59.3 33 -1.1 30
22:35 1012 29.88 841 24.83 15.1 59.1 33 -1.2 29.9
22:40 1012 29.88 841 24.83 15 59 33 -1.2 29.8
22:45 1012 29.88 841 24.83 15 58.9 33 -1.2 29.8
22:50 1012 29.88 841 24.83 15 59 33 -1.1 30.1
22:55 1012 29.88 841 24.83 14.8 58.7 34 -1 30.2
23:00 1012 29.88 841 24.83 14.7 58.4 34 -1 30.1
23:05 1012 29.88 841 24.83 14.5 58.2 34 -0.9 30.4
23:10 1012 29.88 841 24.83 14.4 57.9 35 -0.8 30.5
23:15 1012 29.88 841 24.83 14.4 57.8 34 -1.2 29.8
23:20 1012 29.88 841 24.83 14.5 58.1 34 -1.1 30.1
23:25 1012 29.88 841 24.83 14.4 57.9 34 -1.1 30
23:30 1012 29.88 841 24.83 14.4 57.9 34 -1.3 29.7
23:35 1012 29.88 841 24.83 14.3 57.8 34 -1.1 30.1
23:40 1012 29.88 841 24.83 14.2 57.5 35 -0.9 30.5
23:45 1012 29.88 841 24.83 14 57.3 36 -0.8 30.6
23:50 1012 29.88 841 24.83 14.1 57.3 35 -1.1 30
23:55 1012 29.88 841 24.83 14 57.2 36 -0.8 30.5
24:00 1012 29.88 841 24.83 13.8 56.8 36 -0.8 30.6